sensor_id;sensor_type;location;lat;lon;timestamp;temperature;humidity
254;DHT22;590;48.772;8.846;2022-08-03T00:02:17;19.30;36.70
254;DHT22;590;48.772;8.846;2022-08-03T00:04:45;19.30;36.40
254;DHT22;590;48.772;8.846;2022-08-03T00:07:14;19.20;38.40
254;DHT22;590;48.772;8.846;2022-08-03T00:09:42;19.20;38.80
254;DHT22;590;48.772;8.846;2022-08-03T00:12:10;19.10;39.20
254;DHT22;590;48.772;8.846;2022-08-03T00:14:38;19.10;39.70
254;DHT22;590;48.772;8.846;2022-08-03T00:17:08;19.00;38.80
254;DHT22;590;48.772;8.846;2022-08-03T00:19:37;19.00;38.50
254;DHT22;590;48.772;8.846;2022-08-03T00:22:05;18.90;38.10
254;DHT22;590;48.772;8.846;2022-08-03T00:24:33;19.00;38.80
254;DHT22;590;48.772;8.846;2022-08-03T00:27:02;19.00;38.20
254;DHT22;590;48.772;8.846;2022-08-03T00:29:30;19.00;38.30
254;DHT22;590;48.772;8.846;2022-08-03T00:31:58;18.90;40.10
254;DHT22;590;48.772;8.846;2022-08-03T00:34:26;18.80;40.90
254;DHT22;590;48.772;8.846;2022-08-03T00:37:17;18.80;40.00
254;DHT22;590;48.772;8.846;2022-08-03T00:39:44;18.80;40.20
254;DHT22;590;48.772;8.846;2022-08-03T00:42:14;18.80;40.30
254;DHT22;590;48.772;8.846;2022-08-03T00:44:43;18.70;41.20
254;DHT22;590;48.772;8.846;2022-08-03T00:47:11;18.70;40.60
254;DHT22;590;48.772;8.846;2022-08-03T00:49:40;18.70;41.80
254;DHT22;590;48.772;8.846;2022-08-03T00:52:09;18.60;41.80
254;DHT22;590;48.772;8.846;2022-08-03T00:54:39;18.60;42.50
254;DHT22;590;48.772;8.846;2022-08-03T00:57:07;18.50;44.00
254;DHT22;590;48.772;8.846;2022-08-03T00:59:35;18.40;44.00
254;DHT22;590;48.772;8.846;2022-08-03T01:02:05;18.40;44.20
254;DHT22;590;48.772;8.846;2022-08-03T01:04:33;18.30;45.60
254;DHT22;590;48.772;8.846;2022-08-03T01:07:05;18.30;46.30
254;DHT22;590;48.772;8.846;2022-08-03T01:09:44;18.30;48.00
254;DHT22;590;48.772;8.846;2022-08-03T01:12:23;18.20;49.60
254;DHT22;590;48.772;8.846;2022-08-03T01:14:59;18.20;52.00
254;DHT22;590;48.772;8.846;2022-08-03T01:17:35;18.20;52.80
254;DHT22;590;48.772;8.846;2022-08-03T01:20:06;18.10;52.20
254;DHT22;590;48.772;8.846;2022-08-03T01:26:08;18.00;53.30
254;DHT22;590;48.772;8.846;2022-08-03T01:29:03;17.90;53.20
254;DHT22;590;48.772;8.846;2022-08-03T01:31:39;17.90;52.50
254;DHT22;590;48.772;8.846;2022-08-03T01:34:32;17.90;52.10
254;DHT22;590;48.772;8.846;2022-08-03T01:37:04;17.90;52.50
254;DHT22;590;48.772;8.846;2022-08-03T01:39:34;17.90;51.50
254;DHT22;590;48.772;8.846;2022-08-03T01:42:05;18.00;50.70
254;DHT22;590;48.772;8.846;2022-08-03T01:44:37;18.00;50.90
254;DHT22;590;48.772;8.846;2022-08-03T01:47:09;18.00;52.50
254;DHT22;590;48.772;8.846;2022-08-03T01:49:42;18.00;51.70
254;DHT22;590;48.772;8.846;2022-08-03T01:52:11;18.00;51.30
254;DHT22;590;48.772;8.846;2022-08-03T01:54:47;18.00;51.20
254;DHT22;590;48.772;8.846;2022-08-03T01:57:15;17.90;52.10
254;DHT22;590;48.772;8.846;2022-08-03T01:59:46;17.90;53.00
254;DHT22;590;48.772;8.846;2022-08-03T02:02:17;17.90;53.50
254;DHT22;590;48.772;8.846;2022-08-03T02:05:02;17.80;51.00
254;DHT22;590;48.772;8.846;2022-08-03T02:07:36;17.80;50.90
254;DHT22;590;48.772;8.846;2022-08-03T02:10:07;17.80;51.20
254;DHT22;590;48.772;8.846;2022-08-03T02:12:37;17.80;51.20
254;DHT22;590;48.772;8.846;2022-08-03T02:15:06;17.80;51.20
254;DHT22;590;48.772;8.846;2022-08-03T02:17:37;17.80;51.80
254;DHT22;590;48.772;8.846;2022-08-03T02:20:08;17.80;51.70
254;DHT22;590;48.772;8.846;2022-08-03T02:22:40;17.70;52.60
254;DHT22;590;48.772;8.846;2022-08-03T02:25:09;17.60;53.20
254;DHT22;590;48.772;8.846;2022-08-03T02:27:40;17.60;54.10
254;DHT22;590;48.772;8.846;2022-08-03T02:30:11;17.50;54.30
254;DHT22;590;48.772;8.846;2022-08-03T02:32:52;17.50;53.90
254;DHT22;590;48.772;8.846;2022-08-03T02:35:23;17.50;53.90
254;DHT22;590;48.772;8.846;2022-08-03T02:37:56;17.50;53.80
254;DHT22;590;48.772;8.846;2022-08-03T02:40:28;17.50;53.40
254;DHT22;590;48.772;8.846;2022-08-03T02:42:59;17.40;53.80
254;DHT22;590;48.772;8.846;2022-08-03T02:45:31;17.50;53.50
254;DHT22;590;48.772;8.846;2022-08-03T02:48:05;17.50;53.10
254;DHT22;590;48.772;8.846;2022-08-03T02:50:33;17.60;52.60
254;DHT22;590;48.772;8.846;2022-08-03T02:53:02;17.60;52.80
254;DHT22;590;48.772;8.846;2022-08-03T02:55:34;17.50;53.40
254;DHT22;590;48.772;8.846;2022-08-03T02:58:09;17.50;53.20
254;DHT22;590;48.772;8.846;2022-08-03T03:00:39;17.40;54.50
254;DHT22;590;48.772;8.846;2022-08-03T03:03:10;17.40;54.50
254;DHT22;590;48.772;8.846;2022-08-03T03:05:39;17.30;55.40
254;DHT22;590;48.772;8.846;2022-08-03T03:08:24;17.20;57.10
254;DHT22;590;48.772;8.846;2022-08-03T03:10:55;17.20;57.10
254;DHT22;590;48.772;8.846;2022-08-03T03:13:26;17.20;57.50
254;DHT22;590;48.772;8.846;2022-08-03T03:15:56;17.10;57.00
254;DHT22;590;48.772;8.846;2022-08-03T03:18:28;17.10;56.00
254;DHT22;590;48.772;8.846;2022-08-03T03:20:58;17.10;57.10
254;DHT22;590;48.772;8.846;2022-08-03T03:23:27;17.10;57.40
254;DHT22;590;48.772;8.846;2022-08-03T03:25:59;17.10;57.60
254;DHT22;590;48.772;8.846;2022-08-03T03:28:28;17.10;57.30
254;DHT22;590;48.772;8.846;2022-08-03T03:30:57;17.10;57.00
254;DHT22;590;48.772;8.846;2022-08-03T03:33:25;17.00;59.90
254;DHT22;590;48.772;8.846;2022-08-03T03:35:56;17.00;61.00
254;DHT22;590;48.772;8.846;2022-08-03T03:38:25;17.00;62.10
254;DHT22;590;48.772;8.846;2022-08-03T03:40:53;17.00;62.00
254;DHT22;590;48.772;8.846;2022-08-03T03:43:23;17.00;61.70
254;DHT22;590;48.772;8.846;2022-08-03T03:45:51;17.00;61.60
254;DHT22;590;48.772;8.846;2022-08-03T03:48:19;17.00;61.60
254;DHT22;590;48.772;8.846;2022-08-03T03:50:48;17.00;61.00
254;DHT22;590;48.772;8.846;2022-08-03T03:53:18;16.90;61.40
254;DHT22;590;48.772;8.846;2022-08-03T03:55:46;16.80;61.50
254;DHT22;590;48.772;8.846;2022-08-03T03:58:30;16.80;62.20
254;DHT22;590;48.772;8.846;2022-08-03T04:00:58;16.80;62.50
254;DHT22;590;48.772;8.846;2022-08-03T04:03:27;16.80;62.40
254;DHT22;590;48.772;8.846;2022-08-03T04:05:55;16.80;62.50
254;DHT22;590;48.772;8.846;2022-08-03T04:08:42;16.90;61.70
254;DHT22;590;48.772;8.846;2022-08-03T04:11:42;17.00;61.30
254;DHT22;590;48.772;8.846;2022-08-03T04:14:12;17.00;60.40
254;DHT22;590;48.772;8.846;2022-08-03T04:16:44;17.10;60.20
254;DHT22;590;48.772;8.846;2022-08-03T04:19:16;17.20;59.50
254;DHT22;590;48.772;8.846;2022-08-03T04:21:51;17.20;59.00
254;DHT22;590;48.772;8.846;2022-08-03T04:24:26;17.30;59.80
254;DHT22;590;48.772;8.846;2022-08-03T04:26:58;17.30;59.20
254;DHT22;590;48.772;8.846;2022-08-03T04:29:28;17.30;59.50
254;DHT22;590;48.772;8.846;2022-08-03T04:31:58;17.30;59.40
254;DHT22;590;48.772;8.846;2022-08-03T04:34:29;17.30;59.10
254;DHT22;590;48.772;8.846;2022-08-03T04:36:59;17.30;59.00
254;DHT22;590;48.772;8.846;2022-08-03T04:39:31;17.40;59.50
254;DHT22;590;48.772;8.846;2022-08-03T04:42:02;17.40;58.70
254;DHT22;590;48.772;8.846;2022-08-03T04:44:36;17.50;58.30
254;DHT22;590;48.772;8.846;2022-08-03T04:47:06;17.60;58.10
254;DHT22;590;48.772;8.846;2022-08-03T04:49:36;18.20;58.40
254;DHT22;590;48.772;8.846;2022-08-03T04:52:06;19.40;51.30
254;DHT22;590;48.772;8.846;2022-08-03T04:54:40;21.10;40.40
254;DHT22;590;48.772;8.846;2022-08-03T04:57:15;22.70;30.20
254;DHT22;590;48.772;8.846;2022-08-03T04:59:49;24.30;23.10
254;DHT22;590;48.772;8.846;2022-08-03T05:02:28;25.70;18.30
254;DHT22;590;48.772;8.846;2022-08-03T05:04:56;27.00;14.70
254;DHT22;590;48.772;8.846;2022-08-03T05:07:24;28.20;10.80
254;DHT22;590;48.772;8.846;2022-08-03T05:10:04;29.20;8.30
254;DHT22;590;48.772;8.846;2022-08-03T05:12:43;30.00;6.00
254;DHT22;590;48.772;8.846;2022-08-03T05:15:11;30.60;5.00
254;DHT22;590;48.772;8.846;2022-08-03T05:17:40;31.30;3.90
254;DHT22;590;48.772;8.846;2022-08-03T05:20:09;32.00;2.70
254;DHT22;590;48.772;8.846;2022-08-03T05:22:37;32.40;2.00
254;DHT22;590;48.772;8.846;2022-08-03T05:25:07;32.80;1.50
254;DHT22;590;48.772;8.846;2022-08-03T05:27:43;33.10;1.00
254;DHT22;590;48.772;8.846;2022-08-03T05:30:11;33.10;1.00
254;DHT22;590;48.772;8.846;2022-08-03T05:33:00;32.70;1.00
254;DHT22;590;48.772;8.846;2022-08-03T05:35:28;31.80;1.40
254;DHT22;590;48.772;8.846;2022-08-03T05:38:16;30.90;2.50
254;DHT22;590;48.772;8.846;2022-08-03T05:40:57;29.90;3.50
254;DHT22;590;48.772;8.846;2022-08-03T05:43:45;29.10;4.80
254;DHT22;590;48.772;8.846;2022-08-03T05:46:13;28.40;5.90
254;DHT22;590;48.772;8.846;2022-08-03T05:48:42;28.00;6.70
254;DHT22;590;48.772;8.846;2022-08-03T05:51:10;27.90;7.90
254;DHT22;590;48.772;8.846;2022-08-03T05:53:38;27.90;7.40
254;DHT22;590;48.772;8.846;2022-08-03T05:56:08;27.80;8.40
254;DHT22;590;48.772;8.846;2022-08-03T05:58:41;27.60;8.60
254;DHT22;590;48.772;8.846;2022-08-03T06:01:10;27.40;8.60
254;DHT22;590;48.772;8.846;2022-08-03T06:03:38;27.30;9.70
254;DHT22;590;48.772;8.846;2022-08-03T06:06:06;27.20;9.60
254;DHT22;590;48.772;8.846;2022-08-03T06:08:34;27.10;9.50
254;DHT22;590;48.772;8.846;2022-08-03T06:11:02;27.10;10.00
254;DHT22;590;48.772;8.846;2022-08-03T06:13:32;27.20;10.00
254;DHT22;590;48.772;8.846;2022-08-03T06:16:00;27.30;9.70
254;DHT22;590;48.772;8.846;2022-08-03T06:18:28;27.40;9.70
254;DHT22;590;48.772;8.846;2022-08-03T06:20:56;27.60;9.30
254;DHT22;590;48.772;8.846;2022-08-03T06:23:40;27.80;9.00
254;DHT22;590;48.772;8.846;2022-08-03T06:26:19;28.00;9.10
254;DHT22;590;48.772;8.846;2022-08-03T06:28:49;28.20;8.80
254;DHT22;590;48.772;8.846;2022-08-03T06:31:20;28.40;7.70
254;DHT22;590;48.772;8.846;2022-08-03T06:33:49;28.50;7.90
254;DHT22;590;48.772;8.846;2022-08-03T06:36:38;28.80;8.20
254;DHT22;590;48.772;8.846;2022-08-03T06:39:06;29.20;6.80
254;DHT22;590;48.772;8.846;2022-08-03T06:41:34;29.30;6.40
254;DHT22;590;48.772;8.846;2022-08-03T06:44:05;29.50;6.50
254;DHT22;590;48.772;8.846;2022-08-03T06:46:33;29.70;6.40
254;DHT22;590;48.772;8.846;2022-08-03T06:49:01;29.90;5.60
254;DHT22;590;48.772;8.846;2022-08-03T06:51:29;30.20;5.80
254;DHT22;590;48.772;8.846;2022-08-03T06:54:17;30.50;5.00
254;DHT22;590;48.772;8.846;2022-08-03T06:56:47;30.90;4.70
254;DHT22;590;48.772;8.846;2022-08-03T06:59:17;31.20;3.60
254;DHT22;590;48.772;8.846;2022-08-03T07:02:05;31.50;3.50
254;DHT22;590;48.772;8.846;2022-08-03T07:04:35;31.70;4.00
254;DHT22;590;48.772;8.846;2022-08-03T07:07:03;32.00;2.90
254;DHT22;590;48.772;8.846;2022-08-03T07:09:31;32.10;2.60
254;DHT22;590;48.772;8.846;2022-08-03T07:11:59;32.50;1.80
254;DHT22;590;48.772;8.846;2022-08-03T07:14:29;32.70;2.20
254;DHT22;590;48.772;8.846;2022-08-03T07:16:57;32.70;1.50
254;DHT22;590;48.772;8.846;2022-08-03T07:19:25;33.00;1.70
254;DHT22;590;48.772;8.846;2022-08-03T07:21:53;33.10;1.40
254;DHT22;590;48.772;8.846;2022-08-03T07:24:27;33.50;1.30
254;DHT22;590;48.772;8.846;2022-08-03T07:26:55;33.90;1.00
254;DHT22;590;48.772;8.846;2022-08-03T07:29:23;34.30;1.00
254;DHT22;590;48.772;8.846;2022-08-03T07:31:53;34.50;1.00
254;DHT22;590;48.772;8.846;2022-08-03T07:34:21;34.40;1.00
254;DHT22;590;48.772;8.846;2022-08-03T07:36:49;34.10;1.00
254;DHT22;590;48.772;8.846;2022-08-03T07:39:17;34.20;1.00
254;DHT22;590;48.772;8.846;2022-08-03T07:41:45;34.70;1.00
254;DHT22;590;48.772;8.846;2022-08-03T07:44:16;35.00;1.00
254;DHT22;590;48.772;8.846;2022-08-03T07:46:44;34.80;1.00
254;DHT22;590;48.772;8.846;2022-08-03T07:49:13;34.80;1.00
254;DHT22;590;48.772;8.846;2022-08-03T07:51:42;35.00;1.00
254;DHT22;590;48.772;8.846;2022-08-03T07:54:10;35.10;1.00
254;DHT22;590;48.772;8.846;2022-08-03T07:56:38;35.30;1.00
254;DHT22;590;48.772;8.846;2022-08-03T07:59:06;35.30;1.00
254;DHT22;590;48.772;8.846;2022-08-03T08:01:34;35.30;1.00
254;DHT22;590;48.772;8.846;2022-08-03T08:04:04;35.10;1.00
254;DHT22;590;48.772;8.846;2022-08-03T08:06:33;35.20;1.00
254;DHT22;590;48.772;8.846;2022-08-03T08:09:01;35.50;1.00
254;DHT22;590;48.772;8.846;2022-08-03T08:11:29;35.90;1.00
254;DHT22;590;48.772;8.846;2022-08-03T08:13:57;35.90;1.00
254;DHT22;590;48.772;8.846;2022-08-03T08:16:28;36.10;1.00
254;DHT22;590;48.772;8.846;2022-08-03T08:18:56;35.80;1.00
254;DHT22;590;48.772;8.846;2022-08-03T08:21:24;35.90;1.00
254;DHT22;590;48.772;8.846;2022-08-03T08:24:13;36.30;1.00
254;DHT22;590;48.772;8.846;2022-08-03T08:26:45;36.30;1.00
254;DHT22;590;48.772;8.846;2022-08-03T08:29:13;36.40;1.00
254;DHT22;590;48.772;8.846;2022-08-03T08:31:41;36.50;1.00
254;DHT22;590;48.772;8.846;2022-08-03T08:34:09;35.90;1.00
254;DHT22;590;48.772;8.846;2022-08-03T08:36:37;35.70;1.00
254;DHT22;590;48.772;8.846;2022-08-03T08:39:05;35.90;1.00
254;DHT22;590;48.772;8.846;2022-08-03T08:41:34;35.60;1.00
254;DHT22;590;48.772;8.846;2022-08-03T08:44:03;35.70;1.00
254;DHT22;590;48.772;8.846;2022-08-03T08:46:33;36.00;1.00
254;DHT22;590;48.772;8.846;2022-08-03T08:49:02;36.30;1.00
254;DHT22;590;48.772;8.846;2022-08-03T08:51:33;36.00;1.00
254;DHT22;590;48.772;8.846;2022-08-03T08:54:25;35.80;1.00
254;DHT22;590;48.772;8.846;2022-08-03T08:56:56;35.40;1.00
254;DHT22;590;48.772;8.846;2022-08-03T08:59:31;35.00;1.00
254;DHT22;590;48.772;8.846;2022-08-03T09:02:15;34.90;1.00
254;DHT22;590;48.772;8.846;2022-08-03T09:04:43;34.60;1.00
254;DHT22;590;48.772;8.846;2022-08-03T09:07:14;34.50;1.00
254;DHT22;590;48.772;8.846;2022-08-03T09:09:46;34.50;1.00
254;DHT22;590;48.772;8.846;2022-08-03T09:12:41;34.60;1.00
254;DHT22;590;48.772;8.846;2022-08-03T09:15:20;34.80;1.00
254;DHT22;590;48.772;8.846;2022-08-03T09:17:50;34.80;1.00
254;DHT22;590;48.772;8.846;2022-08-03T09:20:19;34.80;1.00
254;DHT22;590;48.772;8.846;2022-08-03T09:22:52;35.00;1.00
254;DHT22;590;48.772;8.846;2022-08-03T09:25:27;35.00;1.00
254;DHT22;590;48.772;8.846;2022-08-03T09:28:04;35.40;1.00
254;DHT22;590;48.772;8.846;2022-08-03T09:30:33;35.50;1.00
254;DHT22;590;48.772;8.846;2022-08-03T09:33:02;35.40;1.00
254;DHT22;590;48.772;8.846;2022-08-03T09:35:30;35.30;1.00
254;DHT22;590;48.772;8.846;2022-08-03T09:38:21;35.50;1.00
254;DHT22;590;48.772;8.846;2022-08-03T09:40:52;35.30;1.00
254;DHT22;590;48.772;8.846;2022-08-03T09:43:27;35.30;1.00
254;DHT22;590;48.772;8.846;2022-08-03T09:46:12;35.40;1.00
254;DHT22;590;48.772;8.846;2022-08-03T09:48:40;35.30;1.00
254;DHT22;590;48.772;8.846;2022-08-03T09:51:10;35.50;1.00
254;DHT22;590;48.772;8.846;2022-08-03T09:53:44;35.60;1.00
254;DHT22;590;48.772;8.846;2022-08-03T09:56:40;35.60;1.00
254;DHT22;590;48.772;8.846;2022-08-03T09:59:10;35.30;1.00
254;DHT22;590;48.772;8.846;2022-08-03T10:01:38;35.20;1.00
254;DHT22;590;48.772;8.846;2022-08-03T10:04:12;35.00;1.00
254;DHT22;590;48.772;8.846;2022-08-03T10:06:43;34.90;1.00
254;DHT22;590;48.772;8.846;2022-08-03T10:09:13;34.70;1.00
254;DHT22;590;48.772;8.846;2022-08-03T10:11:43;34.50;1.00
254;DHT22;590;48.772;8.846;2022-08-03T10:14:13;34.50;1.00
254;DHT22;590;48.772;8.846;2022-08-03T10:16:47;34.60;1.00
254;DHT22;590;48.772;8.846;2022-08-03T10:19:15;34.60;1.00
254;DHT22;590;48.772;8.846;2022-08-03T10:21:46;34.50;1.00
254;DHT22;590;48.772;8.846;2022-08-03T10:24:19;34.30;1.00
254;DHT22;590;48.772;8.846;2022-08-03T10:26:50;34.20;1.00
254;DHT22;590;48.772;8.846;2022-08-03T10:29:23;34.20;1.00
254;DHT22;590;48.772;8.846;2022-08-03T10:31:57;34.20;1.00
254;DHT22;590;48.772;8.846;2022-08-03T10:34:26;34.40;1.00
254;DHT22;590;48.772;8.846;2022-08-03T10:36:58;34.60;1.00
254;DHT22;590;48.772;8.846;2022-08-03T10:39:28;34.80;1.00
254;DHT22;590;48.772;8.846;2022-08-03T10:41:57;34.90;1.00
254;DHT22;590;48.772;8.846;2022-08-03T10:44:32;34.90;1.00
254;DHT22;590;48.772;8.846;2022-08-03T10:47:04;34.70;1.00
254;DHT22;590;48.772;8.846;2022-08-03T10:49:32;34.60;1.00
254;DHT22;590;48.772;8.846;2022-08-03T10:52:02;34.60;1.00
254;DHT22;590;48.772;8.846;2022-08-03T10:54:51;34.70;1.00
254;DHT22;590;48.772;8.846;2022-08-03T10:57:45;34.50;1.00
254;DHT22;590;48.772;8.846;2022-08-03T11:00:17;34.70;1.00
254;DHT22;590;48.772;8.846;2022-08-03T11:03:06;34.90;1.00
254;DHT22;590;48.772;8.846;2022-08-03T11:05:37;35.10;1.00
254;DHT22;590;48.772;8.846;2022-08-03T11:08:24;35.30;1.00
254;DHT22;590;48.772;8.846;2022-08-03T11:10:53;35.40;1.00
254;DHT22;590;48.772;8.846;2022-08-03T11:13:24;35.50;1.00
254;DHT22;590;48.772;8.846;2022-08-03T11:15:56;35.60;1.00
254;DHT22;590;48.772;8.846;2022-08-03T11:18:28;35.40;1.00
254;DHT22;590;48.772;8.846;2022-08-03T11:20:57;35.40;1.00
254;DHT22;590;48.772;8.846;2022-08-03T11:23:43;35.20;1.00
254;DHT22;590;48.772;8.846;2022-08-03T11:26:32;35.10;1.00
254;DHT22;590;48.772;8.846;2022-08-03T11:29:27;35.00;1.00
254;DHT22;590;48.772;8.846;2022-08-03T11:31:57;34.60;1.00
254;DHT22;590;48.772;8.846;2022-08-03T11:34:25;34.60;1.00
254;DHT22;590;48.772;8.846;2022-08-03T11:37:19;34.50;1.00
254;DHT22;590;48.772;8.846;2022-08-03T11:39:55;34.40;1.00
254;DHT22;590;48.772;8.846;2022-08-03T11:42:44;34.10;1.00
254;DHT22;590;48.772;8.846;2022-08-03T11:45:13;33.70;1.00
254;DHT22;590;48.772;8.846;2022-08-03T11:47:43;33.50;1.00
254;DHT22;590;48.772;8.846;2022-08-03T11:50:18;33.60;1.00
254;DHT22;590;48.772;8.846;2022-08-03T11:52:47;33.80;1.00
254;DHT22;590;48.772;8.846;2022-08-03T11:55:17;34.10;1.00
254;DHT22;590;48.772;8.846;2022-08-03T11:57:47;34.40;1.00
254;DHT22;590;48.772;8.846;2022-08-03T12:00:35;34.60;1.00
254;DHT22;590;48.772;8.846;2022-08-03T12:03:07;34.90;1.00
254;DHT22;590;48.772;8.846;2022-08-03T12:05:42;34.90;1.00
254;DHT22;590;48.772;8.846;2022-08-03T12:08:28;34.90;1.00
254;DHT22;590;48.772;8.846;2022-08-03T12:10:58;34.90;1.00
254;DHT22;590;48.772;8.846;2022-08-03T12:13:35;34.90;1.00
254;DHT22;590;48.772;8.846;2022-08-03T12:16:24;35.00;1.00
254;DHT22;590;48.772;8.846;2022-08-03T12:18:57;34.90;1.00
254;DHT22;590;48.772;8.846;2022-08-03T12:21:26;34.70;1.00
254;DHT22;590;48.772;8.846;2022-08-03T12:23:57;34.60;1.00
254;DHT22;590;48.772;8.846;2022-08-03T12:26:27;34.60;1.00
254;DHT22;590;48.772;8.846;2022-08-03T12:28:55;34.50;1.00
254;DHT22;590;48.772;8.846;2022-08-03T12:31:23;34.40;1.00
254;DHT22;590;48.772;8.846;2022-08-03T12:33:57;34.30;1.00
254;DHT22;590;48.772;8.846;2022-08-03T12:36:26;34.20;1.00
254;DHT22;590;48.772;8.846;2022-08-03T12:38:56;34.40;1.00
254;DHT22;590;48.772;8.846;2022-08-03T12:41:30;34.50;1.00
254;DHT22;590;48.772;8.846;2022-08-03T12:44:00;34.80;1.00
254;DHT22;590;48.772;8.846;2022-08-03T12:46:32;34.90;1.00
254;DHT22;590;48.772;8.846;2022-08-03T12:49:07;34.80;1.00
254;DHT22;590;48.772;8.846;2022-08-03T12:51:37;34.50;1.00
254;DHT22;590;48.772;8.846;2022-08-03T12:54:05;34.40;1.00
254;DHT22;590;48.772;8.846;2022-08-03T12:56:33;34.50;1.00
254;DHT22;590;48.772;8.846;2022-08-03T12:59:22;34.50;1.00
254;DHT22;590;48.772;8.846;2022-08-03T13:01:58;34.40;1.00
254;DHT22;590;48.772;8.846;2022-08-03T13:04:32;34.40;1.00
254;DHT22;590;48.772;8.846;2022-08-03T13:07:02;34.40;1.00
254;DHT22;590;48.772;8.846;2022-08-03T13:09:40;34.40;1.00
254;DHT22;590;48.772;8.846;2022-08-03T13:12:10;34.40;1.00
254;DHT22;590;48.772;8.846;2022-08-03T13:14:54;34.50;1.00
254;DHT22;590;48.772;8.846;2022-08-03T13:17:23;34.60;1.00
254;DHT22;590;48.772;8.846;2022-08-03T13:19:52;34.70;1.00
254;DHT22;590;48.772;8.846;2022-08-03T13:22:22;34.90;1.00
254;DHT22;590;48.772;8.846;2022-08-03T13:24:52;34.90;1.00
254;DHT22;590;48.772;8.846;2022-08-03T13:27:21;35.00;1.00
254;DHT22;590;48.772;8.846;2022-08-03T13:30:10;35.00;1.00
254;DHT22;590;48.772;8.846;2022-08-03T13:32:38;35.00;1.00
254;DHT22;590;48.772;8.846;2022-08-03T13:35:09;34.90;1.00
254;DHT22;590;48.772;8.846;2022-08-03T13:37:42;34.90;1.00
254;DHT22;590;48.772;8.846;2022-08-03T13:40:14;34.90;1.00
254;DHT22;590;48.772;8.846;2022-08-03T13:42:42;34.90;1.00
254;DHT22;590;48.772;8.846;2022-08-03T13:45:10;34.70;1.00
254;DHT22;590;48.772;8.846;2022-08-03T13:47:38;34.60;1.00
254;DHT22;590;48.772;8.846;2022-08-03T13:50:08;34.50;1.00
254;DHT22;590;48.772;8.846;2022-08-03T13:52:36;34.50;1.00
254;DHT22;590;48.772;8.846;2022-08-03T13:55:05;34.50;1.00
254;DHT22;590;48.772;8.846;2022-08-03T13:57:33;34.50;1.00
254;DHT22;590;48.772;8.846;2022-08-03T14:00:22;34.50;1.00
254;DHT22;590;48.772;8.846;2022-08-03T14:02:58;34.50;1.00
254;DHT22;590;48.772;8.846;2022-08-03T14:05:40;34.40;1.00
254;DHT22;590;48.772;8.846;2022-08-03T14:08:08;34.50;1.00
254;DHT22;590;48.772;8.846;2022-08-03T14:10:40;34.50;1.00
254;DHT22;590;48.772;8.846;2022-08-03T14:13:10;34.50;1.00
254;DHT22;590;48.772;8.846;2022-08-03T14:15:42;34.50;1.00
254;DHT22;590;48.772;8.846;2022-08-03T14:18:17;34.30;1.00
254;DHT22;590;48.772;8.846;2022-08-03T14:21:01;34.20;1.00
254;DHT22;590;48.772;8.846;2022-08-03T14:23:33;34.10;1.00
254;DHT22;590;48.772;8.846;2022-08-03T14:26:01;34.10;1.00
254;DHT22;590;48.772;8.846;2022-08-03T14:28:29;34.10;1.00
254;DHT22;590;48.772;8.846;2022-08-03T14:30:57;34.10;1.00
254;DHT22;590;48.772;8.846;2022-08-03T14:33:25;34.10;1.00
254;DHT22;590;48.772;8.846;2022-08-03T14:35:54;34.00;1.00
254;DHT22;590;48.772;8.846;2022-08-03T14:38:24;34.00;1.00
254;DHT22;590;48.772;8.846;2022-08-03T14:40:52;33.80;1.00
254;DHT22;590;48.772;8.846;2022-08-03T14:43:20;33.80;1.00
254;DHT22;590;48.772;8.846;2022-08-03T14:45:49;33.70;1.00
254;DHT22;590;48.772;8.846;2022-08-03T14:48:18;33.70;1.00
254;DHT22;590;48.772;8.846;2022-08-03T14:51:07;33.80;1.00
254;DHT22;590;48.772;8.846;2022-08-03T14:53:36;33.80;1.00
254;DHT22;590;48.772;8.846;2022-08-03T14:56:04;33.80;1.00
254;DHT22;590;48.772;8.846;2022-08-03T14:58:36;33.80;1.00
254;DHT22;590;48.772;8.846;2022-08-03T15:01:04;33.70;1.00
254;DHT22;590;48.772;8.846;2022-08-03T15:03:53;33.70;1.00
254;DHT22;590;48.772;8.846;2022-08-03T15:06:21;33.60;1.00
254;DHT22;590;48.772;8.846;2022-08-03T15:08:50;33.60;1.00
254;DHT22;590;48.772;8.846;2022-08-03T15:11:38;33.60;1.00
254;DHT22;590;48.772;8.846;2022-08-03T15:14:06;33.60;1.00
254;DHT22;590;48.772;8.846;2022-08-03T15:16:35;33.50;1.00
254;DHT22;590;48.772;8.846;2022-08-03T15:19:03;33.50;1.00
254;DHT22;590;48.772;8.846;2022-08-03T15:21:51;33.50;1.00
254;DHT22;590;48.772;8.846;2022-08-03T15:24:21;33.50;1.00
254;DHT22;590;48.772;8.846;2022-08-03T15:26:49;33.50;1.00
254;DHT22;590;48.772;8.846;2022-08-03T15:29:18;33.40;1.00
254;DHT22;590;48.772;8.846;2022-08-03T15:32:06;33.40;1.00
254;DHT22;590;48.772;8.846;2022-08-03T15:34:35;33.40;1.00
254;DHT22;590;48.772;8.846;2022-08-03T15:37:03;33.40;1.00
254;DHT22;590;48.772;8.846;2022-08-03T15:39:43;33.40;1.00
254;DHT22;590;48.772;8.846;2022-08-03T15:42:27;33.50;1.00
254;DHT22;590;48.772;8.846;2022-08-03T15:44:55;33.50;1.00
254;DHT22;590;48.772;8.846;2022-08-03T15:47:23;33.60;1.00
254;DHT22;590;48.772;8.846;2022-08-03T15:49:51;33.60;1.00
254;DHT22;590;48.772;8.846;2022-08-03T15:52:19;33.50;1.00
254;DHT22;590;48.772;8.846;2022-08-03T15:54:48;33.50;1.00
254;DHT22;590;48.772;8.846;2022-08-03T15:57:16;33.40;1.00
254;DHT22;590;48.772;8.846;2022-08-03T15:59:45;33.40;1.00
254;DHT22;590;48.772;8.846;2022-08-03T16:02:13;33.40;1.00
254;DHT22;590;48.772;8.846;2022-08-03T16:04:41;33.40;1.00
254;DHT22;590;48.772;8.846;2022-08-03T16:07:09;33.30;1.00
254;DHT22;590;48.772;8.846;2022-08-03T16:09:38;33.20;1.00
254;DHT22;590;48.772;8.846;2022-08-03T16:12:10;33.20;1.00
254;DHT22;590;48.772;8.846;2022-08-03T16:14:48;33.10;1.00
254;DHT22;590;48.772;8.846;2022-08-03T16:17:19;33.10;1.00
254;DHT22;590;48.772;8.846;2022-08-03T16:19:48;33.10;1.00
254;DHT22;590;48.772;8.846;2022-08-03T16:22:19;33.10;1.00
254;DHT22;590;48.772;8.846;2022-08-03T16:24:48;33.20;1.00
254;DHT22;590;48.772;8.846;2022-08-03T16:27:18;33.10;1.00
254;DHT22;590;48.772;8.846;2022-08-03T16:30:07;33.20;1.00
254;DHT22;590;48.772;8.846;2022-08-03T16:32:37;33.10;1.00
254;DHT22;590;48.772;8.846;2022-08-03T16:35:06;33.10;1.00
254;DHT22;590;48.772;8.846;2022-08-03T16:37:34;33.00;1.00
254;DHT22;590;48.772;8.846;2022-08-03T16:40:07;33.00;1.00
254;DHT22;590;48.772;8.846;2022-08-03T16:42:46;33.00;1.00
254;DHT22;590;48.772;8.846;2022-08-03T16:45:14;33.00;1.00
254;DHT22;590;48.772;8.846;2022-08-03T16:47:42;32.90;1.00
254;DHT22;590;48.772;8.846;2022-08-03T16:50:10;32.80;1.00
254;DHT22;590;48.772;8.846;2022-08-03T16:52:45;32.80;1.00
254;DHT22;590;48.772;8.846;2022-08-03T16:55:14;32.70;1.00
254;DHT22;590;48.772;8.846;2022-08-03T16:58:04;32.60;1.00
254;DHT22;590;48.772;8.846;2022-08-03T17:00:34;32.60;1.00
254;DHT22;590;48.772;8.846;2022-08-03T17:03:08;32.50;1.00
254;DHT22;590;48.772;8.846;2022-08-03T17:05:46;32.50;1.00
254;DHT22;590;48.772;8.846;2022-08-03T17:08:16;32.40;1.00
254;DHT22;590;48.772;8.846;2022-08-03T17:10:53;32.40;1.00
254;DHT22;590;48.772;8.846;2022-08-03T17:13:22;32.40;1.00
254;DHT22;590;48.772;8.846;2022-08-03T17:16:07;32.40;1.00
254;DHT22;590;48.772;8.846;2022-08-03T17:18:38;32.30;1.00
254;DHT22;590;48.772;8.846;2022-08-03T17:21:14;32.20;1.00
254;DHT22;590;48.772;8.846;2022-08-03T17:23:47;32.20;1.00
254;DHT22;590;48.772;8.846;2022-08-03T17:26:20;32.20;1.00